createdAt,value
2022-08-19T00:01:29.262Z,20.71
2022-08-19T00:05:32.605Z,20.85
2022-08-19T00:09:34.624Z,20.82
2022-08-19T00:13:36.411Z,20.70
2022-08-19T00:17:41.949Z,20.79
2022-08-19T00:21:44.145Z,20.65
2022-08-19T00:25:48.778Z,20.68
2022-08-19T00:29:52.715Z,20.72
2022-08-19T00:33:55.065Z,20.78
2022-08-19T00:37:57.068Z,20.72
2022-08-19T00:41:58.534Z,20.72
2022-08-19T00:46:00.310Z,20.90
2022-08-19T00:50:01.818Z,20.78
2022-08-19T00:54:04.736Z,20.66
2022-08-19T00:58:12.885Z,20.78
2022-08-19T01:02:16.411Z,20.95
2022-08-19T01:06:19.877Z,20.78
2022-08-19T01:10:27.610Z,20.94
2022-08-19T01:14:30.119Z,20.95
2022-08-19T01:18:33.386Z,20.91
2022-08-19T01:22:45.168Z,20.89
2022-08-19T01:26:48.165Z,20.65
2022-08-19T01:30:51.083Z,20.41
2022-08-19T01:34:52.731Z,20.56
2022-08-19T01:38:56.238Z,20.26
2022-08-19T01:42:59.018Z,20.16
2022-08-19T01:47:00.481Z,20.05
2022-08-19T01:51:02.187Z,20.04
2022-08-19T01:55:06.759Z,20.06
2022-08-19T01:59:13.072Z,20.24
2022-08-19T02:03:14.879Z,20.05
2022-08-19T02:07:16.317Z,20.06
2022-08-19T02:11:27.918Z,19.91
2022-08-19T02:15:33.021Z,19.99
2022-08-19T02:19:34.598Z,19.74
2022-08-19T02:23:36.062Z,20.08
2022-08-19T02:27:38.058Z,20.19
2022-08-19T02:31:39.583Z,20.16
2022-08-19T02:35:45.191Z,20.22
2022-08-19T02:39:46.902Z,20.14
2022-08-19T02:44:14.270Z,20.17
2022-08-19T02:48:17.937Z,20.15
2022-08-19T02:52:24.266Z,20.19
2022-08-19T02:56:27.994Z,20.12
2022-08-19T03:00:29.487Z,20.38
2022-08-19T03:04:30.936Z,20.28
2022-08-19T03:08:32.447Z,20.30
2022-08-19T03:12:37.438Z,19.83
2022-08-19T03:16:48.526Z,19.75
2022-08-19T03:20:53.831Z,19.93
2022-08-19T03:24:55.299Z,19.97
2022-08-19T03:28:58.711Z,19.93
2022-08-19T03:33:00.392Z,20.15
2022-08-19T03:37:06.999Z,20.29
2022-08-19T03:41:12.552Z,20.33
2022-08-19T03:45:14.015Z,20.21
2022-08-19T03:49:16.228Z,20.11
2022-08-19T03:53:20.026Z,19.85
2022-08-19T03:57:21.577Z,20.05
2022-08-19T04:01:35.126Z,20.27
2022-08-19T04:05:38.847Z,20.38
2022-08-19T04:09:40.417Z,20.16
2022-08-19T04:13:44.327Z,20.32
2022-08-19T04:17:45.878Z,20.19
2022-08-19T04:21:50.965Z,20.27
2022-08-19T04:25:52.506Z,20.36
2022-08-19T04:29:54.599Z,20.45
2022-08-19T04:34:00.938Z,20.38
2022-08-19T04:38:02.425Z,20.25
2022-08-19T04:42:22.441Z,20.34
2022-08-19T04:46:40.519Z,20.30
2022-08-19T04:50:58.644Z,20.41
2022-08-19T04:55:00.493Z,20.49
2022-08-19T04:59:05.230Z,20.61
2022-08-19T05:03:07.713Z,20.71
2022-08-19T05:07:10.271Z,20.79
2022-08-19T05:11:16.067Z,20.70
2022-08-19T05:15:17.736Z,20.83
2022-08-19T05:19:37.906Z,20.86
2022-08-19T05:23:39.564Z,20.84
2022-08-19T05:27:42.679Z,20.99
2022-08-19T05:31:44.790Z,21.12
2022-08-19T05:35:47.169Z,21.22
2022-08-19T05:39:55.050Z,21.27
2022-08-19T05:43:58.485Z,21.24
2022-08-19T05:47:59.951Z,21.41
2022-08-19T05:52:07.053Z,21.42
2022-08-19T05:56:12.300Z,21.57
2022-08-19T06:00:14.825Z,21.49
2022-08-19T06:04:16.262Z,21.21
2022-08-19T06:08:19.260Z,21.59
2022-08-19T06:12:20.758Z,21.72
2022-08-19T06:16:23.339Z,21.78
2022-08-19T06:20:52.368Z,21.52
2022-08-19T06:24:46.245Z,21.89
2022-08-19T06:28:50.617Z,21.90
2022-08-19T06:32:52.282Z,21.95
2022-08-19T06:36:56.273Z,22.04
2022-08-19T06:41:07.634Z,21.74
2022-08-19T06:45:09.867Z,21.84
2022-08-19T06:49:14.925Z,21.57
2022-08-19T06:53:16.549Z,21.46
2022-08-19T06:57:18.056Z,21.80
2022-08-19T07:01:20.806Z,22.03
2022-08-19T07:05:22.613Z,22.16
2022-08-19T07:09:24.093Z,22.47
2022-08-19T07:13:25.605Z,22.28
2022-08-19T07:17:27.578Z,22.58
2022-08-19T07:21:29.889Z,22.71
2022-08-19T07:25:32.114Z,22.91
2022-08-19T07:29:36.359Z,22.54
2022-08-19T07:33:39.872Z,22.34
2022-08-19T07:37:45.144Z,22.36
2022-08-19T07:41:47.800Z,22.41
2022-08-19T07:45:49.417Z,22.79
2022-08-19T07:49:50.873Z,22.73
2022-08-19T07:53:52.402Z,22.46
2022-08-19T07:57:54.575Z,22.42
2022-08-19T08:01:57.432Z,22.89
2022-08-19T08:06:17.270Z,23.21
2022-08-19T08:10:21.089Z,22.88
2022-08-19T08:14:29.697Z,22.86
2022-08-19T08:18:42.365Z,21.91
2022-08-19T08:23:04.217Z,22.74
2022-08-19T08:27:11.256Z,22.41
2022-08-19T08:31:12.975Z,22.10
2022-08-19T08:35:17.627Z,22.14
2022-08-19T08:39:22.237Z,22.20
2022-08-19T08:43:38.030Z,22.14
2022-08-19T08:47:42.231Z,22.62
2022-08-19T08:51:59.269Z,22.32
2022-08-19T08:56:04.133Z,22.14
2022-08-19T09:00:11.042Z,22.05
2022-08-19T09:04:18.377Z,21.96
2022-08-19T09:08:58.449Z,22.13
2022-08-19T09:13:28.410Z,22.26
2022-08-19T09:17:34.562Z,21.99
2022-08-19T09:21:39.219Z,22.11
2022-08-19T09:25:42.327Z,21.74
2022-08-19T09:29:43.807Z,22.27
2022-08-19T09:33:45.564Z,22.37
2022-08-19T09:37:47.042Z,22.22
2022-08-19T09:41:50.599Z,22.36
2022-08-19T09:45:53.528Z,22.88
2022-08-19T09:49:55.942Z,22.97
2022-08-19T09:54:02.068Z,22.79
2022-08-19T09:58:06.461Z,22.70
2022-08-19T10:02:11.014Z,22.42
2022-08-19T10:06:14.982Z,22.36
2022-08-19T10:10:18.953Z,22.44
2022-08-19T10:14:24.276Z,22.58
2022-08-19T10:18:26.838Z,22.81
2022-08-19T10:22:28.288Z,22.86
2022-08-19T10:26:34.492Z,22.81
2022-08-19T10:30:42.908Z,22.73
2022-08-19T10:34:48.094Z,21.93
2022-08-19T10:38:56.622Z,22.20
2022-08-19T10:42:58.515Z,22.42
2022-08-19T10:47:00.441Z,22.16
2022-08-19T10:51:22.720Z,22.39
2022-08-19T10:55:51.560Z,22.51
2022-08-19T10:59:53.156Z,22.41
2022-08-19T11:03:54.630Z,22.55
2022-08-19T11:07:56.258Z,22.01
2022-08-19T11:11:58.384Z,22.32
2022-08-19T11:16:14.872Z,22.28
2022-08-19T11:20:16.424Z,22.14
2022-08-19T11:24:21.967Z,22.15
2022-08-19T11:28:23.447Z,22.22
2022-08-19T11:32:25.475Z,22.16
2022-08-19T11:36:27.610Z,22.08
2022-08-19T11:40:29.116Z,22.46
2022-08-19T11:44:31.361Z,22.52
2022-08-19T11:48:32.867Z,22.39
2022-08-19T11:52:34.495Z,22.55
2022-08-19T11:56:38.424Z,22.81
2022-08-19T12:00:41.065Z,22.95
2022-08-19T12:04:44.785Z,22.89
2022-08-19T12:08:46.651Z,22.85
2022-08-19T12:12:58.043Z,22.97
2022-08-19T12:17:00.992Z,22.63
2022-08-19T12:21:02.747Z,22.83
2022-08-19T12:25:05.955Z,22.91
2022-08-19T12:29:09.352Z,22.71
2022-08-19T12:33:10.804Z,22.74
2022-08-19T12:37:13.127Z,22.83
2022-08-19T12:41:16.363Z,22.57
2022-08-19T12:45:17.896Z,22.98
2022-08-19T12:49:53.067Z,23.01
2022-08-19T12:53:41.340Z,23.14
2022-08-19T12:57:42.757Z,23.30
2022-08-19T13:01:45.077Z,23.07
2022-08-19T13:05:46.548Z,22.67
2022-08-19T13:09:48.053Z,22.53
2022-08-19T13:13:51.738Z,22.85
2022-08-19T13:17:56.968Z,22.83
2022-08-19T13:22:01.755Z,22.73
2022-08-19T13:26:06.505Z,22.79
2022-08-19T13:30:29.413Z,22.56
2022-08-19T13:34:36.032Z,22.91
2022-08-19T13:38:38.803Z,22.70
2022-08-19T13:42:40.837Z,22.83
2022-08-19T13:46:45.984Z,22.62
2022-08-19T13:50:49.017Z,22.72
2022-08-19T13:54:50.426Z,22.67
2022-08-19T13:58:51.855Z,22.52
2022-08-19T14:02:55.514Z,22.52
2022-08-19T14:06:57.035Z,22.91
2022-08-19T14:10:58.887Z,22.88
2022-08-19T14:15:10.577Z,22.87
2022-08-19T14:19:12.009Z,23.11
2022-08-19T14:23:14.572Z,22.67
2022-08-19T14:27:16.054Z,22.98
2022-08-19T14:31:26.788Z,23.00
2022-08-19T14:35:36.793Z,22.53
2022-08-19T14:39:39.251Z,22.87
2022-08-19T14:43:40.922Z,23.16
2022-08-19T14:47:42.433Z,23.13
2022-08-19T14:51:47.864Z,23.50
2022-08-19T14:55:49.378Z,23.21
2022-08-19T14:59:50.899Z,23.37
2022-08-19T15:03:55.794Z,22.91
2022-08-19T15:07:57.581Z,22.70
2022-08-19T15:12:00.635Z,22.24
2022-08-19T15:16:02.481Z,22.25
2022-08-19T15:20:05.338Z,22.40
2022-08-19T15:24:07.069Z,22.33
2022-08-19T15:28:10.469Z,22.21
2022-08-19T15:32:11.972Z,22.16
2022-08-19T15:36:13.467Z,21.68
2022-08-19T15:40:21.276Z,21.91
2022-08-19T15:44:22.897Z,21.89
2022-08-19T15:48:24.323Z,22.03
2022-08-19T15:52:25.751Z,21.98
2022-08-19T15:56:27.718Z,21.87
2022-08-19T16:00:50.057Z,21.70
2022-08-19T16:05:12.943Z,21.76
2022-08-19T16:09:16.269Z,21.63
2022-08-19T16:13:18.086Z,21.79
2022-08-19T16:17:19.588Z,21.69
2022-08-19T16:21:23.004Z,21.74
2022-08-19T16:25:29.901Z,21.89
2022-08-19T16:29:34.608Z,21.77
2022-08-19T16:33:41.401Z,21.52
2022-08-19T16:37:42.880Z,21.17
2022-08-19T16:41:45.737Z,21.37
2022-08-19T16:45:49.387Z,21.51
2022-08-19T16:49:52.966Z,21.28
2022-08-19T16:53:56.602Z,21.29
2022-08-19T16:57:58.088Z,21.35
2022-08-19T17:01:59.629Z,21.51
2022-08-19T17:06:03.537Z,21.37
2022-08-19T17:10:06.102Z,21.39
2022-08-19T17:14:08.374Z,21.36
2022-08-19T17:18:12.482Z,21.46
2022-08-19T17:22:13.947Z,21.23
2022-08-19T17:26:18.574Z,21.28
2022-08-19T17:30:22.501Z,21.21
2022-08-19T17:34:28.104Z,21.22
2022-08-19T17:38:33.053Z,21.26
2022-08-19T17:42:36.566Z,21.35
2022-08-19T17:46:38.111Z,21.31
2022-08-19T17:50:40.391Z,20.96
2022-08-19T17:54:42.136Z,20.80
2022-08-19T17:58:45.007Z,20.80
2022-08-19T18:02:55.677Z,20.87
2022-08-19T18:07:04.184Z,20.83
2022-08-19T18:11:09.514Z,20.90
2022-08-19T18:15:11.731Z,20.76
2022-08-19T18:19:13.315Z,20.56
2022-08-19T18:23:44.676Z,20.65
2022-08-19T18:27:36.940Z,20.62
2022-08-19T18:31:38.799Z,20.75
2022-08-19T18:35:45.483Z,20.50
2022-08-19T18:40:05.267Z,20.76
2022-08-19T18:44:25.234Z,20.34
2022-08-19T18:48:48.831Z,20.54
2022-08-19T18:52:50.349Z,20.49
2022-08-19T18:56:55.616Z,20.32
2022-08-19T19:00:57.554Z,20.45
2022-08-19T19:05:00.349Z,20.31
2022-08-19T19:09:04.596Z,20.39
2022-08-19T19:13:06.107Z,20.46
2022-08-19T19:17:14.773Z,20.64
2022-08-19T19:21:16.329Z,20.66
2022-08-19T19:25:19.881Z,20.75
2022-08-19T19:29:21.696Z,20.63
2022-08-19T19:33:23.682Z,20.84
2022-08-19T19:37:25.274Z,20.56
2022-08-19T19:41:26.854Z,20.46
2022-08-19T19:45:30.322Z,20.43
2022-08-19T19:49:32.254Z,20.45
2022-08-19T19:53:33.850Z,20.55
2022-08-19T19:57:35.440Z,20.84
2022-08-19T20:01:36.973Z,20.97
2022-08-19T20:05:39.385Z,20.78
2022-08-19T20:09:58.817Z,20.85
2022-08-19T20:14:05.142Z,21.08
2022-08-19T20:18:06.621Z,20.43
2022-08-19T20:22:08.338Z,20.44
2022-08-19T20:26:10.295Z,20.58
2022-08-19T20:30:24.872Z,20.87
2022-08-19T20:34:27.946Z,20.79
2022-08-19T20:38:29.422Z,20.95
2022-08-19T20:42:30.880Z,20.60
2022-08-19T20:46:32.724Z,20.35
2022-08-19T20:50:35.845Z,20.50
2022-08-19T20:54:37.324Z,20.54
2022-08-19T20:58:38.907Z,20.67
2022-08-19T21:02:40.408Z,20.53
2022-08-19T21:06:45.332Z,20.61
2022-08-19T21:10:49.357Z,20.56
2022-08-19T21:14:50.798Z,20.43
2022-08-19T21:18:53.220Z,20.48
2022-08-19T21:22:54.679Z,20.65
2022-08-19T21:26:56.136Z,20.45
2022-08-19T21:30:59.145Z,20.19
2022-08-19T21:35:02.221Z,20.37
2022-08-19T21:39:04.207Z,20.15
2022-08-19T21:43:06.595Z,20.30
2022-08-19T21:47:08.182Z,20.46
2022-08-19T21:51:12.148Z,20.21
2022-08-19T21:55:14.661Z,20.04
2022-08-19T21:59:17.022Z,20.11
2022-08-19T22:03:19.089Z,20.06
2022-08-19T22:07:22.128Z,20.18
2022-08-19T22:11:25.368Z,20.17
2022-08-19T22:15:29.132Z,20.15
2022-08-19T22:19:30.590Z,20.14
2022-08-19T22:23:32.380Z,20.12
2022-08-19T22:27:34.206Z,20.00
2022-08-19T22:31:37.515Z,20.02
2022-08-19T22:35:41.139Z,19.99
2022-08-19T22:39:42.639Z,20.03
2022-08-19T22:43:48.355Z,20.19
2022-08-19T22:47:49.817Z,19.93
2022-08-19T22:52:09.817Z,19.80
2022-08-19T22:56:15.373Z,19.59
2022-08-19T23:00:17.110Z,19.52
2022-08-19T23:04:18.572Z,19.79
2022-08-19T23:08:20.060Z,19.87
2022-08-19T23:12:31.506Z,19.96
2022-08-19T23:16:34.809Z,19.71
2022-08-19T23:20:38.732Z,19.63
2022-08-19T23:24:40.189Z,19.93
2022-08-19T23:29:00.017Z,20.08
2022-08-19T23:33:11.024Z,20.27
2022-08-19T23:37:14.834Z,20.19
2022-08-19T23:41:18.385Z,20.01
2022-08-19T23:45:22.943Z,19.92
2022-08-19T23:49:27.582Z,19.91
2022-08-19T23:53:29.448Z,19.99
2022-08-19T23:57:30.968Z,20.07
